Time;durP1;ratioP1;P1;durP2;ratioP2;P2;SDS_P1;SDS_P2;PMS_P1;PMS_P2;Temp;Humidity;BMP_temperature;BMP_pressure;BME280_temperature;BME280_humidity;BME280_pressure;Samples;Min_cycle;Max_cycle;Signal;HPM_P1;HPM_P2
2022/07/30 00:00:08;;;;;;;9.73;3.08;;;;;;;;;;5020466;28;20045;-75
2022/07/30 00:02:54;;;;;;;6.85;2.72;;;;;;;;;;5019982;28;20093;-74
2022/07/30 00:05:20;;;;;;;8.15;3.28;;;;;;;;;;5020332;28;20084;-74
2022/07/30 00:07:46;;;;;;;12.15;3.22;;;;;;;;;;5016603;28;20128;-73
2022/07/30 00:10:12;;;;;;;9.32;2.92;;;;;;;;;;5016549;28;20045;-74
2022/07/30 00:12:38;;;;;;;14.20;3.20;;;;;;;;;;5014184;28;20443;-73
2022/07/30 00:15:04;;;;;;;13.75;3.35;;;;;;;;;;5019258;28;20049;-73
2022/07/30 00:17:30;;;;;;;9.95;3.20;;;;;;;;;;5017630;28;20050;-73
2022/07/30 00:19:56;;;;;;;11.68;3.40;;;;;;;;;;5015434;28;20063;-73
2022/07/30 00:22:22;;;;;;;9.68;3.20;;;;;;;;;;5021472;28;20053;-73
2022/07/30 00:24:48;;;;;;;11.10;3.22;;;;;;;;;;5022218;28;20045;-71
2022/07/30 00:27:14;;;;;;;7.22;2.90;;;;;;;;;;5021535;28;20052;-73
2022/07/30 00:29:40;;;;;;;7.82;2.80;;;;;;;;;;5025881;28;20041;-72
2022/07/30 00:32:06;;;;;;;7.60;3.13;;;;;;;;;;5019676;28;20041;-73
2022/07/30 00:34:32;;;;;;;10.07;2.88;;;;;;;;;;5025008;28;20065;-72
2022/07/30 00:36:57;;;;;;;11.60;3.08;;;;;;;;;;5026215;28;20045;-72
2022/07/30 00:39:23;;;;;;;10.90;2.90;;;;;;;;;;5022459;28;20136;-72
2022/07/30 00:41:58;;;;;;;9.52;3.35;;;;;;;;;;5021066;28;20049;-72
2022/07/30 00:44:25;;;;;;;11.30;3.20;;;;;;;;;;5024998;28;20179;-72
2022/07/30 00:46:51;;;;;;;10.10;3.17;;;;;;;;;;5025270;28;20045;-74
2022/07/30 00:49:17;;;;;;;8.80;3.17;;;;;;;;;;5026282;28;20041;-73
2022/07/30 00:51:43;;;;;;;7.65;3.22;;;;;;;;;;5018707;28;20048;-72
2022/07/30 00:54:09;;;;;;;8.40;2.75;;;;;;;;;;5023222;28;20049;-72
2022/07/30 00:56:34;;;;;;;6.60;2.85;;;;;;;;;;5027276;28;20050;-71
2022/07/30 00:59:00;;;;;;;6.93;2.90;;;;;;;;;;5022515;28;20060;-72
2022/07/30 01:01:26;;;;;;;7.60;2.92;;;;;;;;;;5021150;28;20057;-71
2022/07/30 01:03:52;;;;;;;9.10;3.15;;;;;;;;;;5024385;28;20149;-73
2022/07/30 01:06:18;;;;;;;7.32;3.03;;;;;;;;;;5018657;28;20057;-72
2022/07/30 01:08:44;;;;;;;4.70;2.78;;;;;;;;;;5021676;28;20080;-73
2022/07/30 01:11:10;;;;;;;8.65;3.00;;;;;;;;;;5018240;28;20426;-72
2022/07/30 01:13:37;;;;;;;6.40;2.80;;;;;;;;;;5021539;28;20152;-75
2022/07/30 01:16:03;;;;;;;9.70;2.85;;;;;;;;;;5019436;28;20058;-72
2022/07/30 01:21:28;;;;;;;6.13;2.88;;;;;;;;;;5059337;28;20052;-72
2022/07/30 01:23:59;;;;;;;9.95;3.00;;;;;;;;;;5061945;28;20102;-71
2022/07/30 01:26:25;;;;;;;15.27;3.38;;;;;;;;;;5062938;28;20786;-71
2022/07/30 01:28:53;;;;;;;10.18;3.30;;;;;;;;;;5065437;28;20053;-73
2022/07/30 01:31:20;;;;;;;11.95;3.20;;;;;;;;;;5059124;28;20111;-69
2022/07/30 01:33:48;;;;;;;14.88;3.75;;;;;;;;;;5061920;28;20121;-74
2022/07/30 01:36:16;;;;;;;11.02;3.42;;;;;;;;;;5061681;28;20059;-72
2022/07/30 01:38:45;;;;;;;8.38;3.60;;;;;;;;;;5060366;28;20125;-73
2022/07/30 01:41:12;;;;;;;17.60;4.10;;;;;;;;;;5059384;28;20040;-71
2022/07/30 01:43:39;;;;;;;11.25;4.28;;;;;;;;;;5060717;28;20048;-76
2022/07/30 01:46:07;;;;;;;12.23;3.78;;;;;;;;;;5059723;28;20071;-73
2022/07/30 01:48:35;;;;;;;8.40;3.97;;;;;;;;;;5059827;28;20053;-71
2022/07/30 01:51:04;;;;;;;8.10;3.38;;;;;;;;;;5057913;28;20060;-74
2022/07/30 01:53:32;;;;;;;9.68;3.92;;;;;;;;;;5060860;28;20825;-72
2022/07/30 01:56:01;;;;;;;11.30;3.90;;;;;;;;;;5062632;28;20056;-73
2022/07/30 01:58:31;;;;;;;13.23;4.07;;;;;;;;;;5043058;28;20057;-72
2022/07/30 02:00:57;;;;;;;10.90;3.70;;;;;;;;;;5023866;28;20088;-72
2022/07/30 02:03:25;;;;;;;19.38;4.30;;;;;;;;;;5022843;28;20089;-72
2022/07/30 02:06:07;;;;;;;9.75;4.00;;;;;;;;;;5026226;28;20057;-77
2022/07/30 02:08:40;;;;;;;9.18;4.18;;;;;;;;;;5023398;28;20050;-71
2022/07/30 02:11:08;;;;;;;12.43;4.30;;;;;;;;;;5023598;28;20129;-75
2022/07/30 02:13:51;;;;;;;14.02;4.20;;;;;;;;;;5027506;28;20093;-73
2022/07/30 02:16:24;;;;;;;5.90;3.57;;;;;;;;;;5021183;28;20050;-72
2022/07/30 02:19:10;;;;;;;6.95;3.90;;;;;;;;;;5019404;28;20052;-70
2022/07/30 02:21:43;;;;;;;11.13;4.22;;;;;;;;;;5025427;28;20695;-69
2022/07/30 02:24:16;;;;;;;9.75;4.18;;;;;;;;;;5022075;28;20086;-66
2022/07/30 02:26:43;;;;;;;11.57;4.30;;;;;;;;;;5018585;28;20053;-69
2022/07/30 02:29:10;;;;;;;10.38;4.30;;;;;;;;;;5030586;28;20045;-69
2022/07/30 02:31:38;;;;;;;16.15;4.18;;;;;;;;;;5017548;28;20052;-70
2022/07/30 02:34:05;;;;;;;11.15;4.28;;;;;;;;;;5020309;28;20038;-70
2022/07/30 02:36:34;;;;;;;12.68;3.88;;;;;;;;;;5013329;28;20053;-71
2022/07/30 02:39:03;;;;;;;13.63;4.03;;;;;;;;;;5023072;28;20426;-71
2022/07/30 02:41:30;;;;;;;13.48;3.97;;;;;;;;;;5023202;28;20184;-70
2022/07/30 02:43:57;;;;;;;12.38;4.30;;;;;;;;;;5011615;28;20511;-72
2022/07/30 02:46:24;;;;;;;15.45;4.15;;;;;;;;;;5025693;28;20415;-73
2022/07/30 02:48:53;;;;;;;10.25;3.63;;;;;;;;;;5014352;28;20435;-75
2022/07/30 02:51:20;;;;;;;11.07;3.97;;;;;;;;;;5015840;28;20033;-71
2022/07/30 02:53:48;;;;;;;11.68;4.03;;;;;;;;;;5018483;28;20069;-72
2022/07/30 02:56:16;;;;;;;11.88;4.20;;;;;;;;;;5012260;28;20081;-74
2022/07/30 02:58:44;;;;;;;10.65;3.97;;;;;;;;;;5020415;28;20462;-72
2022/07/30 03:01:14;;;;;;;11.75;4.00;;;;;;;;;;5011420;28;20111;-71
2022/07/30 03:03:42;;;;;;;8.63;3.90;;;;;;;;;;5016885;28;20071;-73
2022/07/30 03:06:12;;;;;;;10.73;4.07;;;;;;;;;;5023174;28;20196;-73
2022/07/30 03:08:40;;;;;;;16.92;4.38;;;;;;;;;;5018384;28;20461;-72
2022/07/30 03:11:09;;;;;;;14.65;4.63;;;;;;;;;;5046443;28;20050;-75
2022/07/30 03:13:35;;;;;;;12.10;3.70;;;;;;;;;;5030903;28;20110;-73
2022/07/30 03:16:06;;;;;;;14.05;4.50;;;;;;;;;;5016916;28;20119;-70
2022/07/30 03:18:34;;;;;;;10.50;4.55;;;;;;;;;;5021589;28;20081;-70
2022/07/30 03:21:00;;;;;;;11.32;3.80;;;;;;;;;;5019521;28;20050;-70
2022/07/30 03:23:28;;;;;;;14.60;3.95;;;;;;;;;;5022955;28;20045;-72
2022/07/30 03:25:59;;;;;;;12.43;3.97;;;;;;;;;;5018394;28;20050;-68
2022/07/30 03:28:26;;;;;;;11.18;4.43;;;;;;;;;;5014786;28;20050;-70
2022/07/30 03:30:53;;;;;;;9.10;4.05;;;;;;;;;;5027600;28;20052;-73
2022/07/30 03:33:20;;;;;;;11.65;4.40;;;;;;;;;;5011618;28;20129;-71
2022/07/30 03:35:48;;;;;;;13.57;4.28;;;;;;;;;;5024221;28;20053;-74
2022/07/30 03:38:15;;;;;;;13.75;4.63;;;;;;;;;;5008784;28;20050;-71
2022/07/30 03:40:42;;;;;;;17.10;4.78;;;;;;;;;;5006415;28;20064;-72
2022/07/30 03:43:09;;;;;;;12.43;4.45;;;;;;;;;;5015135;28;20450;-72
2022/07/30 03:45:36;;;;;;;13.63;4.20;;;;;;;;;;5025562;28;20072;-72
2022/07/30 03:48:06;;;;;;;12.93;4.13;;;;;;;;;;5012182;28;20633;-73
2022/07/30 03:50:34;;;;;;;13.50;4.28;;;;;;;;;;5009608;28;20576;-72
2022/07/30 03:53:03;;;;;;;9.52;4.10;;;;;;;;;;5014219;28;20049;-71
2022/07/30 03:55:29;;;;;;;10.65;4.07;;;;;;;;;;5007838;28;20050;-72
2022/07/30 03:57:55;;;;;;;11.38;3.65;;;;;;;;;;5007731;28;20401;-71
2022/07/30 04:00:21;;;;;;;13.80;4.07;;;;;;;;;;5007504;28;20587;-72
2022/07/30 04:02:47;;;;;;;10.27;3.80;;;;;;;;;;5010943;28;20172;-71
2022/07/30 04:05:14;;;;;;;11.57;4.60;;;;;;;;;;5020132;28;20049;-72
2022/07/30 04:07:40;;;;;;;10.40;4.00;;;;;;;;;;5009960;28;20049;-71
2022/07/30 04:10:07;;;;;;;13.32;3.88;;;;;;;;;;5024386;28;20052;-71
2022/07/30 04:12:32;;;;;;;15.15;3.90;;;;;;;;;;5008756;28;20049;-74
2022/07/30 04:14:58;;;;;;;12.40;4.13;;;;;;;;;;5046003;28;20297;-71
2022/07/30 04:17:37;;;;;;;9.00;3.72;;;;;;;;;;5016819;28;20531;-72
2022/07/30 04:20:35;;;;;;;12.85;4.30;;;;;;;;;;5010995;28;20491;-70
2022/07/30 04:23:02;;;;;;;10.60;3.97;;;;;;;;;;5023628;28;20046;-72
2022/07/30 04:25:29;;;;;;;11.63;3.80;;;;;;;;;;5020787;28;20058;-71
2022/07/30 04:27:55;;;;;;;11.65;4.25;;;;;;;;;;5011195;28;20132;-71
2022/07/30 04:30:21;;;;;;;16.58;4.65;;;;;;;;;;5006272;28;20064;-73
2022/07/30 04:32:47;;;;;;;13.93;3.83;;;;;;;;;;5006854;28;20049;-72
2022/07/30 04:35:25;;;;;;;12.25;3.95;;;;;;;;;;5006715;28;20479;-72
2022/07/30 04:37:51;;;;;;;10.20;3.78;;;;;;;;;;5007521;28;20046;-74
2022/07/30 04:40:16;;;;;;;11.30;4.20;;;;;;;;;;5010163;28;20117;-73
2022/07/30 04:42:42;;;;;;;8.05;3.88;;;;;;;;;;5007486;28;20034;-73
2022/07/30 04:45:10;;;;;;;12.18;3.78;;;;;;;;;;5012686;28;20073;-72
2022/07/30 04:47:36;;;;;;;12.27;4.35;;;;;;;;;;5010137;28;20045;-71
2022/07/30 04:50:05;;;;;;;10.95;4.40;;;;;;;;;;5011534;28;20048;-72
2022/07/30 04:52:32;;;;;;;19.33;4.15;;;;;;;;;;5013685;28;20100;-78
2022/07/30 04:55:06;;;;;;;13.45;4.20;;;;;;;;;;5013672;28;20041;-71
2022/07/30 04:57:34;;;;;;;15.27;4.80;;;;;;;;;;5024046;28;20088;-73
2022/07/30 05:00:00;;;;;;;14.10;4.22;;;;;;;;;;5024486;28;20049;-74
2022/07/30 05:02:29;;;;;;;11.13;3.97;;;;;;;;;;5022242;28;20058;-73
2022/07/30 05:04:57;;;;;;;13.20;4.05;;;;;;;;;;5015544;28;20057;-74
2022/07/30 05:07:25;;;;;;;16.77;4.45;;;;;;;;;;5009403;28;20133;-73
2022/07/30 05:09:51;;;;;;;10.57;3.70;;;;;;;;;;5016999;28;20046;-73
2022/07/30 05:12:17;;;;;;;13.02;4.85;;;;;;;;;;5014388;28;20080;-72
2022/07/30 05:14:43;;;;;;;12.18;4.18;;;;;;;;;;5020788;28;20130;-71
2022/07/30 05:17:08;;;;;;;9.95;4.20;;;;;;;;;;5012145;28;20042;-72
2022/07/30 05:19:35;;;;;;;14.15;4.32;;;;;;;;;;5011907;28;20111;-71
2022/07/30 05:22:00;;;;;;;16.58;4.40;;;;;;;;;;5013398;28;20640;-72
2022/07/30 05:24:26;;;;;;;13.15;4.53;;;;;;;;;;5012968;28;20073;-72
2022/07/30 05:26:52;;;;;;;12.48;4.05;;;;;;;;;;5012406;28;20140;-71
2022/07/30 05:29:18;;;;;;;10.23;4.10;;;;;;;;;;5012614;28;20041;-71
2022/07/30 05:31:44;;;;;;;14.23;4.50;;;;;;;;;;5016060;28;20133;-72
2022/07/30 05:34:10;;;;;;;16.67;4.40;;;;;;;;;;5019253;28;20118;-72
2022/07/30 05:36:36;;;;;;;16.38;4.93;;;;;;;;;;5010311;28;20072;-71
2022/07/30 05:39:02;;;;;;;13.55;4.43;;;;;;;;;;5009931;28;20112;-72
2022/07/30 05:41:28;;;;;;;14.48;4.32;;;;;;;;;;5010598;28;20077;-73
2022/07/30 05:43:54;;;;;;;11.27;4.60;;;;;;;;;;5042531;28;20081;-71
2022/07/30 05:46:20;;;;;;;16.85;4.13;;;;;;;;;;5023791;28;20053;-70
2022/07/30 05:48:46;;;;;;;11.90;4.40;;;;;;;;;;5017722;28;20056;-71
2022/07/30 05:51:12;;;;;;;11.82;4.32;;;;;;;;;;5019771;28;20482;-73
2022/07/30 05:53:38;;;;;;;12.48;4.65;;;;;;;;;;5027020;28;20046;-71
2022/07/30 05:56:04;;;;;;;12.93;4.30;;;;;;;;;;5012928;28;20048;-70
2022/07/30 05:58:29;;;;;;;13.23;4.60;;;;;;;;;;5012750;28;20053;-73
2022/07/30 06:00:55;;;;;;;10.60;4.13;;;;;;;;;;5018725;28;20438;-72
2022/07/30 06:03:21;;;;;;;13.60;4.63;;;;;;;;;;5021588;28;20084;-73
2022/07/30 06:05:47;;;;;;;15.68;4.53;;;;;;;;;;5028900;28;20160;-73
2022/07/30 06:08:13;;;;;;;12.23;4.00;;;;;;;;;;5026806;28;20154;-75
2022/07/30 06:10:39;;;;;;;12.27;3.95;;;;;;;;;;5024661;28;20101;-76
2022/07/30 06:13:04;;;;;;;12.90;4.30;;;;;;;;;;5027716;28;20502;-72
2022/07/30 06:15:30;;;;;;;16.45;4.88;;;;;;;;;;5018439;28;20046;-72
2022/07/30 06:17:56;;;;;;;14.18;4.50;;;;;;;;;;5016409;28;20049;-72
2022/07/30 06:20:22;;;;;;;14.15;4.30;;;;;;;;;;5010801;28;20080;-71
2022/07/30 06:22:48;;;;;;;12.68;4.30;;;;;;;;;;5014225;28;20046;-72
2022/07/30 06:25:14;;;;;;;13.48;4.40;;;;;;;;;;5011748;28;20045;-73
2022/07/30 06:27:39;;;;;;;13.57;4.43;;;;;;;;;;5010467;28;20052;-72
2022/07/30 06:30:07;;;;;;;15.77;4.60;;;;;;;;;;5024156;28;20077;-72
2022/07/30 06:32:34;;;;;;;12.48;4.40;;;;;;;;;;5011337;28;20442;-72
2022/07/30 06:35:00;;;;;;;12.05;4.75;;;;;;;;;;5022673;28;20049;-74
2022/07/30 06:37:26;;;;;;;12.52;4.60;;;;;;;;;;5010043;28;20077;-73
2022/07/30 06:39:52;;;;;;;11.73;4.90;;;;;;;;;;5009315;28;20488;-72
2022/07/30 06:42:18;;;;;;;18.60;4.45;;;;;;;;;;5013925;28;20526;-72
2022/07/30 06:44:44;;;;;;;12.68;4.68;;;;;;;;;;5018130;28;20066;-71
2022/07/30 06:47:10;;;;;;;17.95;5.25;;;;;;;;;;5022078;28;20041;-72
2022/07/30 06:49:37;;;;;;;14.80;5.00;;;;;;;;;;5009029;28;20034;-73
2022/07/30 06:52:03;;;;;;;13.65;4.65;;;;;;;;;;5008795;28;20085;-74
2022/07/30 06:54:30;;;;;;;11.70;4.60;;;;;;;;;;5018788;28;20054;-73
2022/07/30 06:56:57;;;;;;;16.42;4.28;;;;;;;;;;5014014;28;20041;-72
2022/07/30 06:59:22;;;;;;;10.05;4.07;;;;;;;;;;5020478;28;20557;-75
2022/07/30 07:01:49;;;;;;;15.90;4.88;;;;;;;;;;5021475;28;20045;-73
2022/07/30 07:04:15;;;;;;;9.27;4.50;;;;;;;;;;5021136;28;20099;-74
2022/07/30 07:06:40;;;;;;;14.35;4.75;;;;;;;;;;5015507;28;20037;-74
2022/07/30 07:09:06;;;;;;;15.55;4.50;;;;;;;;;;5027448;28;20141;-75
2022/07/30 07:11:32;;;;;;;9.38;4.60;;;;;;;;;;5027600;28;20129;-72
2022/07/30 07:13:58;;;;;;;16.77;4.70;;;;;;;;;;5023495;28;20057;-73
2022/07/30 07:16:24;;;;;;;13.32;4.68;;;;;;;;;;5027623;28;20404;-77
2022/07/30 07:18:52;;;;;;;10.20;4.53;;;;;;;;;;5016802;28;20064;-76
2022/07/30 07:21:18;;;;;;;11.43;4.35;;;;;;;;;;5009309;28;20415;-74
2022/07/30 07:23:44;;;;;;;16.17;5.18;;;;;;;;;;5023245;28;20046;-77
2022/07/30 07:26:10;;;;;;;14.23;4.82;;;;;;;;;;5018730;28;20056;-77
2022/07/30 07:28:36;;;;;;;8.52;4.32;;;;;;;;;;5027630;28;20132;-76
2022/07/30 07:31:02;;;;;;;13.10;4.35;;;;;;;;;;5010998;28;20136;-78
2022/07/30 07:33:28;;;;;;;11.05;4.53;;;;;;;;;;5010666;28;20124;-75
2022/07/30 07:35:54;;;;;;;10.77;4.05;;;;;;;;;;5020812;28;20056;-76
2022/07/30 07:38:20;;;;;;;9.80;3.83;;;;;;;;;;5028681;28;20180;-77
2022/07/30 07:40:46;;;;;;;10.63;3.72;;;;;;;;;;5018583;28;20062;-77
2022/07/30 07:43:13;;;;;;;16.17;4.20;;;;;;;;;;5021524;28;20041;-76
2022/07/30 07:45:40;;;;;;;10.18;4.10;;;;;;;;;;5028150;28;20076;-78
2022/07/30 07:48:07;;;;;;;16.83;4.63;;;;;;;;;;5028592;28;20045;-77
2022/07/30 07:50:33;;;;;;;13.63;4.22;;;;;;;;;;5014124;28;20045;-75
2022/07/30 07:52:59;;;;;;;10.73;4.07;;;;;;;;;;5019029;28;20057;-76
2022/07/30 07:55:25;;;;;;;11.82;4.40;;;;;;;;;;5017865;28;20572;-77
2022/07/30 07:57:51;;;;;;;14.25;3.92;;;;;;;;;;5023848;28;20132;-75
2022/07/30 08:00:18;;;;;;;16.10;4.20;;;;;;;;;;5008012;28;20048;-75
2022/07/30 08:02:43;;;;;;;8.57;3.90;;;;;;;;;;5008075;28;20060;-74
2022/07/30 08:05:11;;;;;;;10.52;4.10;;;;;;;;;;5007530;28;20117;-73
2022/07/30 08:07:38;;;;;;;11.13;4.38;;;;;;;;;;5016853;28;20061;-69
2022/07/30 08:10:05;;;;;;;17.02;4.15;;;;;;;;;;5012390;28;20046;-68
2022/07/30 08:12:31;;;;;;;16.10;4.50;;;;;;;;;;5025877;28;20430;-69
2022/07/30 08:14:57;;;;;;;15.10;4.50;;;;;;;;;;5014880;28;20448;-71
2022/07/30 08:17:23;;;;;;;12.70;4.00;;;;;;;;;;5024844;28;20547;-69
2022/07/30 08:19:49;;;;;;;9.40;3.63;;;;;;;;;;5016777;28;20041;-69
2022/07/30 08:22:15;;;;;;;9.32;3.67;;;;;;;;;;5023756;28;20045;-69
2022/07/30 08:24:41;;;;;;;10.80;4.20;;;;;;;;;;5021208;28;20053;-72
2022/07/30 08:27:06;;;;;;;11.40;3.60;;;;;;;;;;5029081;28;20092;-70
2022/07/30 08:29:32;;;;;;;15.75;4.05;;;;;;;;;;5015456;28;20070;-74
2022/07/30 08:31:58;;;;;;;12.30;4.20;;;;;;;;;;5007907;28;20056;-72
2022/07/30 08:34:24;;;;;;;8.73;3.33;;;;;;;;;;5023488;28;20045;-71
2022/07/30 08:36:50;;;;;;;12.95;3.90;;;;;;;;;;5025434;28;20046;-71
2022/07/30 08:39:15;;;;;;;11.80;3.65;;;;;;;;;;5008492;28;20045;-75
2022/07/30 08:41:41;;;;;;;10.38;3.47;;;;;;;;;;5022812;28;20049;-72
2022/07/30 08:44:10;;;;;;;9.93;3.47;;;;;;;;;;5018759;28;20045;-71
2022/07/30 08:46:41;;;;;;;10.55;4.00;;;;;;;;;;5021393;28;20053;-70
2022/07/30 08:49:07;;;;;;;9.15;3.65;;;;;;;;;;5008048;28;20108;-72
2022/07/30 08:51:37;;;;;;;14.25;4.00;;;;;;;;;;5019686;28;20047;-72
2022/07/30 08:54:04;;;;;;;13.20;3.75;;;;;;;;;;5014703;28;20096;-69
2022/07/30 08:56:32;;;;;;;9.02;4.25;;;;;;;;;;5020861;28;20038;-75
2022/07/30 08:58:59;;;;;;;11.00;4.47;;;;;;;;;;5014781;28;20065;-68
2022/07/30 09:01:25;;;;;;;19.58;4.78;;;;;;;;;;5017723;28;20387;-71
2022/07/30 09:03:51;;;;;;;10.30;3.78;;;;;;;;;;5021223;28;20067;-70
2022/07/30 09:06:18;;;;;;;13.35;4.13;;;;;;;;;;5030390;28;20056;-72
2022/07/30 09:08:43;;;;;;;12.68;4.20;;;;;;;;;;5027323;28;20048;-64
2022/07/30 09:11:09;;;;;;;16.65;4.40;;;;;;;;;;5012888;28;20042;-68
2022/07/30 09:13:38;;;;;;;10.57;4.10;;;;;;;;;;5013935;28;20050;-67
2022/07/30 09:16:04;;;;;;;12.00;4.43;;;;;;;;;;5025816;28;20042;-75
2022/07/30 09:18:39;;;;;;;12.90;3.85;;;;;;;;;;5022031;28;20061;-68
2022/07/30 09:21:25;;;;;;;11.65;4.25;;;;;;;;;;5022006;28;20052;-68
2022/07/30 09:23:58;;;;;;;12.60;3.45;;;;;;;;;;5022540;28;20137;-69
2022/07/30 09:26:25;;;;;;;8.77;3.50;;;;;;;;;;5020127;28;20098;-68
2022/07/30 09:28:50;;;;;;;10.52;3.63;;;;;;;;;;5016766;28;20093;-68
2022/07/30 09:31:17;;;;;;;12.23;3.38;;;;;;;;;;5021309;28;20570;-70
2022/07/30 09:33:45;;;;;;;8.80;3.53;;;;;;;;;;5024571;28;20110;-69
2022/07/30 09:36:16;;;;;;;11.52;3.30;;;;;;;;;;5022758;28;20058;-68
2022/07/30 09:38:50;;;;;;;10.48;3.50;;;;;;;;;;5023044;28;20111;-70
2022/07/30 09:41:38;;;;;;;8.98;3.17;;;;;;;;;;5019059;28;20735;-70
2022/07/30 09:44:05;;;;;;;12.98;3.33;;;;;;;;;;5021795;28;20104;-67
2022/07/30 09:46:45;;;;;;;9.40;3.00;;;;;;;;;;5020868;28;20049;-69
2022/07/30 09:49:16;;;;;;;5.60;2.90;;;;;;;;;;5021650;28;20065;-71
2022/07/30 09:51:42;;;;;;;11.07;3.47;;;;;;;;;;5021549;28;20061;-67
2022/07/30 09:54:08;;;;;;;9.65;3.17;;;;;;;;;;5023190;28;20064;-66
2022/07/30 09:56:34;;;;;;;13.52;3.58;;;;;;;;;;5030360;28;20081;-68
2022/07/30 09:59:00;;;;;;;11.95;3.38;;;;;;;;;;5017289;28;20050;-66
2022/07/30 10:01:27;;;;;;;7.53;3.05;;;;;;;;;;5018741;28;20046;-70
2022/07/30 10:03:53;;;;;;;10.25;3.45;;;;;;;;;;5009068;28;20053;-71
2022/07/30 10:06:32;;;;;;;13.27;3.45;;;;;;;;;;5010799;28;20104;-70
2022/07/30 10:08:58;;;;;;;10.70;3.53;;;;;;;;;;5013662;28;20855;-68
2022/07/30 10:11:25;;;;;;;10.95;3.38;;;;;;;;;;5021308;28;20574;-70
2022/07/30 10:13:56;;;;;;;8.18;3.10;;;;;;;;;;5029276;28;20041;-68
2022/07/30 10:16:26;;;;;;;10.10;3.20;;;;;;;;;;5025088;28;20042;-69
2022/07/30 10:18:52;;;;;;;13.57;3.50;;;;;;;;;;5021657;28;20454;-69
2022/07/30 10:21:18;;;;;;;9.27;3.20;;;;;;;;;;5023952;28;20053;-74
2022/07/30 10:23:45;;;;;;;10.07;3.55;;;;;;;;;;5017426;28;20136;-67
2022/07/30 10:26:12;;;;;;;13.63;3.08;;;;;;;;;;5023269;28;20049;-72
2022/07/30 10:28:39;;;;;;;8.77;2.95;;;;;;;;;;5022725;28;20168;-71
2022/07/30 10:31:05;;;;;;;8.02;2.60;;;;;;;;;;5023487;28;20128;-69
2022/07/30 10:33:31;;;;;;;8.45;2.83;;;;;;;;;;5018523;28;20053;-69
2022/07/30 10:35:57;;;;;;;11.20;3.30;;;;;;;;;;5021735;28;20528;-68
2022/07/30 10:38:29;;;;;;;9.05;3.03;;;;;;;;;;5021708;28;20049;-69
2022/07/30 10:41:02;;;;;;;7.60;2.78;;;;;;;;;;5021320;28;20049;-70
2022/07/30 10:43:27;;;;;;;14.57;2.85;;;;;;;;;;5017987;28;20157;-67
2022/07/30 10:46:23;;;;;;;6.90;2.35;;;;;;;;;;5021202;28;20128;-67
2022/07/30 10:48:49;;;;;;;8.38;3.00;;;;;;;;;;5006663;28;20133;-69
2022/07/30 10:51:15;;;;;;;10.05;3.22;;;;;;;;;;5013644;28;20132;-69
2022/07/30 10:53:47;;;;;;;8.35;2.72;;;;;;;;;;5015299;28;20045;-67
2022/07/30 10:56:15;;;;;;;12.18;2.63;;;;;;;;;;5021221;28;20072;-67
2022/07/30 10:58:59;;;;;;;8.07;2.88;;;;;;;;;;5021685;28;20065;-70
2022/07/30 11:01:45;;;;;;;8.10;2.55;;;;;;;;;;5020651;28;20062;-68
2022/07/30 11:04:28;;;;;;;5.63;2.38;;;;;;;;;;5017555;28;20057;-69
2022/07/30 11:07:22;;;;;;;11.63;3.42;;;;;;;;;;5023002;28;20049;-68
2022/07/30 11:09:52;;;;;;;;;;;;;;;;;;5022224;28;20061;-68
2022/07/30 11:12:46;;;;;;;5.50;2.63;;;;;;;;;;5014528;28;19921;-69
2022/07/30 11:15:13;;;;;;;6.15;2.25;;;;;;;;;;5019372;28;20523;-69
2022/07/30 11:17:58;;;;;;;8.35;2.50;;;;;;;;;;5018310;28;20049;-71
2022/07/30 11:20:24;;;;;;;10.82;2.63;;;;;;;;;;5016692;28;20041;-72
2022/07/30 11:22:51;;;;;;;10.75;2.80;;;;;;;;;;5016163;28;20708;-75
2022/07/30 11:25:26;;;;;;;9.95;2.40;;;;;;;;;;5019999;28;20057;-72
2022/07/30 11:27:52;;;;;;;8.02;2.45;;;;;;;;;;5017201;28;20532;-73
2022/07/30 11:30:21;;;;;;;10.55;2.45;;;;;;;;;;5016803;28;20133;-69
2022/07/30 11:32:52;;;;;;;8.63;2.55;;;;;;;;;;5013909;28;20131;-71
2022/07/30 11:35:25;;;;;;;9.32;2.65;;;;;;;;;;5014918;28;20080;-68
2022/07/30 11:37:57;;;;;;;9.13;2.50;;;;;;;;;;5016081;28;20242;-69
2022/07/30 11:40:25;;;;;;;7.65;2.75;;;;;;;;;;5016089;28;20045;-71
2022/07/30 11:43:11;;;;;;;8.40;2.38;;;;;;;;;;5017815;28;20049;-69
2022/07/30 11:45:38;;;;;;;7.47;2.75;;;;;;;;;;5019884;28;20519;-70
2022/07/30 11:48:09;;;;;;;8.07;2.53;;;;;;;;;;5006969;28;20077;-67
2022/07/30 11:50:36;;;;;;;9.38;2.80;;;;;;;;;;5014241;28;20490;-70
2022/07/30 11:53:07;;;;;;;6.60;2.75;;;;;;;;;;5013928;28;20075;-71
2022/07/30 11:55:37;;;;;;;9.00;2.03;;;;;;;;;;5015714;28;20064;-72
2022/07/30 11:58:06;;;;;;;9.95;2.60;;;;;;;;;;5015382;28;20057;-69
2022/07/30 12:00:46;;;;;;;9.80;2.60;;;;;;;;;;5016612;28;20053;-69
2022/07/30 12:03:15;;;;;;;5.90;2.42;;;;;;;;;;5016590;28;20076;-68
2022/07/30 12:05:42;;;;;;;5.65;2.60;;;;;;;;;;5017528;28;20049;-71
2022/07/30 12:08:09;;;;;;;9.65;2.47;;;;;;;;;;5016467;28;20049;-70
2022/07/30 12:10:37;;;;;;;9.35;2.47;;;;;;;;;;5015053;28;20053;-73
2022/07/30 12:13:13;;;;;;;6.43;2.67;;;;;;;;;;5006315;28;20504;-67
2022/07/30 12:15:41;;;;;;;9.70;2.80;;;;;;;;;;5005804;28;20046;-69
2022/07/30 12:18:11;;;;;;;6.38;2.50;;;;;;;;;;5005941;28;20050;-70
2022/07/30 12:20:37;;;;;;;7.15;2.58;;;;;;;;;;5038968;28;20045;-73
2022/07/30 12:23:12;;;;;;;10.10;2.58;;;;;;;;;;5017802;28;20111;-71
2022/07/30 12:25:42;;;;;;;9.80;2.58;;;;;;;;;;5021709;28;20041;-65
2022/07/30 12:28:09;;;;;;;8.57;2.70;;;;;;;;;;5016468;28;20045;-69
2022/07/30 12:30:39;;;;;;;8.68;2.35;;;;;;;;;;5020835;28;20533;-70
2022/07/30 12:33:06;;;;;;;9.65;2.65;;;;;;;;;;5019993;28;20057;-73
2022/07/30 12:35:52;;;;;;;8.00;2.72;;;;;;;;;;5053877;28;20123;-72
2022/07/30 12:38:20;;;;;;;8.68;2.38;;;;;;;;;;5018500;28;20045;-73
2022/07/30 12:41:01;;;;;;;7.65;2.38;;;;;;;;;;5019352;28;20049;-72
2022/07/30 12:43:51;;;;;;;8.20;2.60;;;;;;;;;;5020930;28;20057;-71
2022/07/30 12:46:22;;;;;;;7.53;2.40;;;;;;;;;;5021603;28;20054;-71
2022/07/30 12:49:00;;;;;;;9.23;2.60;;;;;;;;;;5018114;28;20052;-70
2022/07/30 12:51:31;;;;;;;10.55;2.63;;;;;;;;;;5020853;28;20050;-71
2022/07/30 12:53:58;;;;;;;10.07;2.70;;;;;;;;;;5019825;28;20076;-72
2022/07/30 12:56:29;;;;;;;12.10;2.63;;;;;;;;;;5020757;28;20053;-73
2022/07/30 12:58:58;;;;;;;8.90;2.42;;;;;;;;;;5018760;28;20060;-70
2022/07/30 13:01:44;;;;;;;7.75;2.53;;;;;;;;;;5020347;28;20112;-70
2022/07/30 13:04:11;;;;;;;10.73;2.50;;;;;;;;;;5020668;28;20049;-71
2022/07/30 13:06:39;;;;;;;7.57;2.50;;;;;;;;;;5015722;28;20041;-69
2022/07/30 13:09:06;;;;;;;10.35;2.33;;;;;;;;;;5007955;28;20057;-72
2022/07/30 13:11:40;;;;;;;9.32;2.10;;;;;;;;;;5008578;28;20050;-70
2022/07/30 13:14:07;;;;;;;6.97;2.47;;;;;;;;;;5009293;28;20252;-70
2022/07/30 13:16:35;;;;;;;11.65;2.58;;;;;;;;;;5008454;28;20144;-72
2022/07/30 13:19:05;;;;;;;9.38;2.65;;;;;;;;;;5010054;28;20061;-72
2022/07/30 13:21:35;;;;;;;9.57;2.33;;;;;;;;;;5023812;28;20388;-72
2022/07/30 13:24:01;;;;;;;14.57;2.88;;;;;;;;;;5052071;28;20055;-70
2022/07/30 13:26:30;;;;;;;11.98;2.50;;;;;;;;;;5016542;28;20122;-69
2022/07/30 13:28:57;;;;;;;8.27;2.28;;;;;;;;;;5014551;28;20450;-70
2022/07/30 13:31:24;;;;;;;10.30;2.35;;;;;;;;;;5014061;28;20049;-69
2022/07/30 13:33:50;;;;;;;10.15;2.47;;;;;;;;;;5020093;28;20115;-71
2022/07/30 13:36:17;;;;;;;11.95;2.30;;;;;;;;;;5019455;28;20052;-72
2022/07/30 13:38:44;;;;;;;8.13;2.15;;;;;;;;;;5022025;28;20128;-69
2022/07/30 13:41:10;;;;;;;8.13;2.30;;;;;;;;;;5022742;28;20053;-68
2022/07/30 13:43:36;;;;;;;9.40;2.45;;;;;;;;;;5024492;28;20041;-67
2022/07/30 13:46:03;;;;;;;9.02;2.15;;;;;;;;;;5022218;28;20570;-71
2022/07/30 13:48:29;;;;;;;10.25;2.20;;;;;;;;;;5023127;28;20505;-70
2022/07/30 13:50:55;;;;;;;9.60;2.50;;;;;;;;;;5021876;28;20046;-69
2022/07/30 13:53:21;;;;;;;9.02;2.05;;;;;;;;;;5014083;28;20530;-69
2022/07/30 13:55:47;;;;;;;9.07;2.33;;;;;;;;;;5022483;28;20074;-75
2022/07/30 13:58:13;;;;;;;7.45;2.33;;;;;;;;;;5014111;28;20042;-74
2022/07/30 14:00:39;;;;;;;8.18;2.40;;;;;;;;;;5020329;28;20049;-72
2022/07/30 14:03:11;;;;;;;9.23;2.35;;;;;;;;;;5008883;28;20077;-70
2022/07/30 14:05:38;;;;;;;7.68;2.45;;;;;;;;;;5016205;28;20077;-71
2022/07/30 14:08:06;;;;;;;10.52;2.08;;;;;;;;;;5010542;28;20430;-74
2022/07/30 14:10:33;;;;;;;7.53;2.40;;;;;;;;;;5023124;28;20411;-74
2022/07/30 14:13:00;;;;;;;10.90;2.78;;;;;;;;;;5030942;28;20053;-68
2022/07/30 14:15:29;;;;;;;12.40;2.47;;;;;;;;;;5011650;28;20048;-73
2022/07/30 14:17:56;;;;;;;7.95;2.28;;;;;;;;;;5008856;28;20153;-72
2022/07/30 14:20:22;;;;;;;6.03;2.45;;;;;;;;;;5018717;28;20072;-72
2022/07/30 14:22:48;;;;;;;12.07;2.13;;;;;;;;;;5008402;28;20056;-73
2022/07/30 14:25:14;;;;;;;6.78;2.10;;;;;;;;;;5021895;28;20053;-70
2022/07/30 14:27:40;;;;;;;9.18;2.10;;;;;;;;;;5011609;28;20074;-74
2022/07/30 14:30:08;;;;;;;7.95;2.17;;;;;;;;;;5042930;28;20068;-74
2022/07/30 14:32:38;;;;;;;11.05;2.30;;;;;;;;;;5009110;28;20042;-71
2022/07/30 14:35:07;;;;;;;8.73;2.25;;;;;;;;;;5013238;28;20068;-72
2022/07/30 14:37:35;;;;;;;7.47;2.47;;;;;;;;;;5024822;28;20106;-70
2022/07/30 14:40:01;;;;;;;11.73;2.10;;;;;;;;;;5027535;28;20057;-73
2022/07/30 14:42:27;;;;;;;11.77;2.38;;;;;;;;;;5011386;28;20053;-74
2022/07/30 14:44:53;;;;;;;8.43;2.22;;;;;;;;;;5012246;28;20050;-69